Time;durP1;ratioP1;P1;durP2;ratioP2;P2;SDS_P1;SDS_P2;PMS_P1;PMS_P2;Temp;Humidity;BMP_temperature;BMP_pressure;BME280_temperature;BME280_humidity;BME280_pressure;Samples;Min_cycle;Max_cycle;Signal;HPM_P1;HPM_P2
2022/08/02 00:00:04;;;;;;;14.80;13.30;;;16.70;99.90;;;;;;5094635;28;20070;-73
2022/08/02 00:02:29;;;;;;;18.85;14.75;;;16.70;99.90;;;;;;5094530;28;20470;-72
2022/08/02 00:04:55;;;;;;;31.80;20.88;;;16.70;99.90;;;;;;5094551;28;20035;-73
2022/08/02 00:07:21;;;;;;;29.58;23.27;;;16.80;99.90;;;;;;5094254;28;20047;-72
2022/08/02 00:09:46;;;;;;;26.90;21.15;;;16.80;99.90;;;;;;5094523;28;20024;-73
2022/08/02 00:12:12;;;;;;;26.25;21.33;;;16.90;99.90;;;;;;5094500;28;20039;-72
2022/08/02 00:14:38;;;;;;;27.52;22.65;;;16.90;99.90;;;;;;5094268;28;20481;-74
2022/08/02 00:17:04;;;;;;;27.73;21.58;;;16.90;99.90;;;;;;5094221;28;20047;-72
2022/08/02 00:19:30;;;;;;;27.38;22.80;;;16.90;99.90;;;;;;5094260;28;20024;-72
2022/08/02 00:21:55;;;;;;;23.42;20.92;;;16.90;99.90;;;;;;5093418;28;20435;-72
2022/08/02 00:24:21;;;;;;;22.67;19.33;;;16.90;99.90;;;;;;5094114;28;20055;-72
2022/08/02 00:26:47;;;;;;;20.02;17.70;;;16.90;99.90;;;;;;5093959;28;20028;-72
2022/08/02 00:29:12;;;;;;;19.20;16.80;;;16.90;99.90;;;;;;5094051;28;20016;-73
2022/08/02 00:31:38;;;;;;;20.40;15.68;;;16.90;99.90;;;;;;5094056;28;20032;-72
2022/08/02 00:34:04;;;;;;;16.92;14.73;;;16.80;99.90;;;;;;5093871;28;20477;-72
2022/08/02 00:36:29;;;;;;;20.10;17.08;;;16.80;99.90;;;;;;5093921;28;20030;-74
2022/08/02 00:38:55;;;;;;;17.58;14.27;;;16.80;99.90;;;;;;5092561;28;20027;-72
2022/08/02 00:41:21;;;;;;;18.25;16.13;;;16.80;99.90;;;;;;5093923;28;20114;-73
2022/08/02 00:43:48;;;;;;;19.30;17.30;;;16.80;99.90;;;;;;5092353;28;20032;-73
2022/08/02 00:46:16;;;;;;;19.90;17.17;;;16.70;99.90;;;;;;5093611;28;20448;-72
2022/08/02 00:48:41;;;;;;;16.95;14.65;;;16.60;99.90;;;;;;5093649;28;20024;-72
2022/08/02 00:51:07;;;;;;;21.02;17.13;;;16.60;99.90;;;;;;5093766;28;20076;-72
2022/08/02 00:53:33;;;;;;;23.83;19.48;;;16.60;99.90;;;;;;5093521;28;20051;-72
2022/08/02 00:55:59;;;;;;;20.70;18.02;;;16.60;99.90;;;;;;5093524;28;20028;-72
2022/08/02 00:58:25;;;;;;;25.20;20.48;;;16.60;99.90;;;;;;5093530;28;20039;-72
2022/08/02 01:00:51;;;;;;;21.65;18.40;;;16.60;99.90;;;;;;5092325;28;20016;-72
2022/08/02 01:03:16;;;;;;;23.77;19.70;;;16.60;99.90;;;;;;5092161;28;20032;-72
2022/08/02 01:05:43;;;;;;;24.52;19.65;;;16.60;99.90;;;;;;5093452;28;20440;-73
2022/08/02 01:08:09;;;;;;;24.73;21.92;;;16.60;99.90;;;;;;5093282;28;20103;-72
2022/08/02 01:10:35;;;;;;;25.02;20.45;;;16.70;99.90;;;;;;5093382;28;20056;-73
2022/08/02 01:13:00;;;;;;;24.38;19.55;;;16.60;99.90;;;;;;5093453;28;20024;-72
2022/08/02 01:15:27;;;;;;;21.33;17.95;;;16.70;99.90;;;;;;5093200;28;20024;-73
2022/08/02 01:18:08;;;;;;;24.02;20.60;;;16.70;99.90;;;;;;5093146;28;20028;-72
2022/08/02 01:20:37;;;;;;;25.60;20.33;;;16.80;99.90;;;;;;5092001;28;20020;-72
2022/08/02 01:23:40;;;;;;;24.00;20.52;;;16.70;99.90;;;;;;5092021;28;20024;-72
2022/08/02 01:26:17;;;;;;;;;;;16.80;99.90;;;;;;5093452;28;20024;-73
2022/08/02 01:29:03;;;;;;;24.75;19.08;;;16.70;99.90;;;;;;5093092;28;19908;-72
2022/08/02 01:31:33;;;;;;;26.38;20.02;;;16.70;99.90;;;;;;5093219;28;20024;-71
2022/08/02 01:34:14;;;;;;;27.77;20.10;;;16.70;99.90;;;;;;5092980;28;20460;-72
2022/08/02 01:36:45;;;;;;;28.30;21.25;;;16.70;99.90;;;;;;5093077;28;20020;-72
2022/08/02 01:39:14;;;;;;;26.42;20.52;;;16.70;99.90;;;;;;5093053;28;20012;-72
2022/08/02 01:41:42;;;;;;;34.22;20.00;;;16.70;99.90;;;;;;5092953;28;20020;-72
2022/08/02 01:44:10;;;;;;;32.50;20.55;;;16.70;99.90;;;;;;5092881;28;20503;-72
2022/08/02 01:46:39;;;;;;;48.90;22.23;;;16.70;99.90;;;;;;5092848;28;20148;-72
2022/08/02 01:49:08;;;;;;;38.05;18.40;;;16.60;99.90;;;;;;5091629;28;20028;-72
2022/08/02 01:54:23;;;;;;;25.13;17.55;;;16.60;99.90;;;;;;5093185;28;20127;-72
2022/08/02 01:56:50;;;;;;;45.20;21.20;;;16.60;99.90;;;;;;5090948;28;20016;-72
2022/08/02 01:59:20;;;;;;;76.53;21.52;;;16.60;99.90;;;;;;5092023;28;20020;-73
2022/08/02 02:01:48;;;;;;;51.58;19.35;;;16.60;99.90;;;;;;5093336;28;20016;-72
2022/08/02 02:04:15;;;;;;;61.35;21.05;;;16.60;99.90;;;;;;5092826;28;20024;-72
2022/08/02 02:06:43;;;;;;;63.80;19.65;;;16.60;99.90;;;;;;5092494;28;20431;-72
2022/08/02 02:09:12;;;;;;;43.10;18.90;;;16.60;99.90;;;;;;5089357;28;20025;-72
2022/08/02 02:11:39;;;;;;;55.35;18.50;;;16.60;99.90;;;;;;5090699;28;20020;-72
2022/08/02 02:14:07;;;;;;;44.95;19.50;;;16.60;99.90;;;;;;5090459;28;20784;-71
2022/08/02 02:16:33;;;;;;;40.10;21.38;;;16.50;99.90;;;;;;5090584;28;20065;-72
2022/08/02 02:19:02;;;;;;;34.25;20.92;;;16.50;99.90;;;;;;5090537;28;20020;-72
2022/08/02 02:21:28;;;;;;;42.22;20.23;;;16.60;99.90;;;;;;5089261;28;20024;-72
2022/08/02 02:23:54;;;;;;;44.90;21.13;;;16.60;99.90;;;;;;5092090;28;20021;-72
2022/08/02 02:26:19;;;;;;;40.85;20.17;;;16.60;99.90;;;;;;5092463;28;20042;-72
2022/08/02 02:28:51;;;;;;;31.02;19.50;;;16.60;99.90;;;;;;5092511;28;20032;-72
2022/08/02 02:31:20;;;;;;;32.38;19.20;;;16.60;99.90;;;;;;5092528;28;20027;-72
2022/08/02 02:34:11;;;;;;;41.63;21.13;;;16.50;99.90;;;;;;5092430;28;20032;-72
2022/08/02 02:36:44;;;;;;;32.85;20.67;;;16.50;99.90;;;;;;5086827;28;20497;-72
2022/08/02 02:39:13;;;;;;;41.50;22.42;;;16.60;99.90;;;;;;5092627;28;20537;-71
2022/08/02 02:41:40;;;;;;;32.03;22.05;;;16.50;99.90;;;;;;5092326;28;20066;-71
2022/08/02 02:44:08;;;;;;;28.95;19.25;;;16.60;99.90;;;;;;5093291;28;20111;-71
2022/08/02 02:46:35;;;;;;;27.00;19.55;;;16.60;99.90;;;;;;5094718;28;20378;-72
2022/08/02 02:49:02;;;;;;;27.42;19.15;;;16.60;99.90;;;;;;5096030;28;20046;-72
2022/08/02 02:51:28;;;;;;;25.10;19.23;;;16.60;99.90;;;;;;5094667;28;20511;-72
2022/08/02 02:53:55;;;;;;;27.13;19.45;;;16.60;99.90;;;;;;5095996;28;20068;-72
2022/08/02 02:56:21;;;;;;;30.88;19.15;;;16.60;99.90;;;;;;5095720;28;20012;-72
2022/08/02 02:58:47;;;;;;;24.15;19.50;;;16.60;99.90;;;;;;5095828;28;20485;-72
2022/08/02 03:01:32;;;;;;;26.35;18.60;;;16.60;99.90;;;;;;5077619;28;20106;-73
2022/08/02 03:04:03;;;;;;;27.73;19.83;;;16.60;99.90;;;;;;5095775;28;20073;-71
2022/08/02 03:06:29;;;;;;;23.83;18.15;;;16.60;99.90;;;;;;5095548;28;20098;-72
2022/08/02 03:08:56;;;;;;;28.38;18.95;;;16.60;99.90;;;;;;5095777;28;20024;-71
2022/08/02 03:11:23;;;;;;;25.70;19.58;;;16.60;99.90;;;;;;5095605;28;20016;-72
2022/08/02 03:13:50;;;;;;;22.70;16.20;;;16.60;99.90;;;;;;5095406;28;20032;-72
2022/08/02 03:16:16;;;;;;;28.90;19.80;;;16.70;99.90;;;;;;5095320;28;20094;-72
2022/08/02 03:18:43;;;;;;;23.13;16.98;;;16.70;99.90;;;;;;5094110;28;20055;-72
2022/08/02 03:21:11;;;;;;;24.38;17.60;;;16.70;99.90;;;;;;5095371;28;20024;-72
2022/08/02 03:23:38;;;;;;;22.10;16.55;;;16.70;99.90;;;;;;5094110;28;20020;-72
2022/08/02 03:26:04;;;;;;;24.67;17.13;;;16.70;99.90;;;;;;5095015;28;20039;-72
2022/08/02 03:28:30;;;;;;;24.90;18.17;;;16.70;99.90;;;;;;5095338;28;20470;-72
2022/08/02 03:30:56;;;;;;;25.30;17.80;;;16.70;99.90;;;;;;5095226;28;20020;-72
2022/08/02 03:33:24;;;;;;;25.42;18.20;;;16.60;99.90;;;;;;5093916;28;20480;-72
2022/08/02 03:35:51;;;;;;;24.83;18.98;;;16.60;99.90;;;;;;5093762;28;20491;-72
2022/08/02 03:38:19;;;;;;;25.05;17.45;;;16.60;99.90;;;;;;5095056;28;20024;-72
2022/08/02 03:40:46;;;;;;;27.23;18.50;;;16.60;99.90;;;;;;5095009;28;20047;-72
2022/08/02 03:43:12;;;;;;;26.42;17.60;;;16.70;99.90;;;;;;5095285;28;20050;-72
2022/08/02 03:45:41;;;;;;;28.75;19.42;;;16.60;99.90;;;;;;5093572;28;20058;-72
2022/08/02 03:48:07;;;;;;;29.08;20.17;;;16.70;99.90;;;;;;5093767;28;20156;-72
2022/08/02 03:50:36;;;;;;;24.48;18.30;;;16.60;99.90;;;;;;5094827;28;20028;-72
2022/08/02 03:53:02;;;;;;;32.97;19.42;;;16.70;99.90;;;;;;5094697;28;20517;-72
2022/08/02 03:55:28;;;;;;;42.05;21.95;;;16.60;99.90;;;;;;5093668;28;20103;-71
2022/08/02 03:57:54;;;;;;;33.78;18.30;;;16.60;99.90;;;;;;5094807;28;20438;-71
2022/08/02 04:00:21;;;;;;;33.47;20.15;;;16.60;99.90;;;;;;5093447;28;20062;-72
2022/08/02 04:02:48;;;;;;;28.27;17.85;;;16.60;99.90;;;;;;5094511;28;20048;-71
2022/08/02 04:05:15;;;;;;;28.50;19.13;;;16.70;99.90;;;;;;5093355;28;20016;-72
2022/08/02 04:07:42;;;;;;;27.88;19.50;;;16.60;99.90;;;;;;5094243;28;20059;-71
2022/08/02 04:10:09;;;;;;;33.00;20.00;;;16.60;99.90;;;;;;5094414;28;20068;-72
2022/08/02 04:12:35;;;;;;;27.38;20.23;;;16.60;99.90;;;;;;5094409;28;20032;-71
2022/08/02 04:15:01;;;;;;;28.50;19.90;;;16.70;99.90;;;;;;5094402;28;20054;-73
2022/08/02 04:17:31;;;;;;;29.70;20.75;;;16.70;99.90;;;;;;5094144;28;20393;-72
2022/08/02 04:20:06;;;;;;;31.17;20.20;;;16.70;99.90;;;;;;5094250;28;20039;-71
2022/08/02 04:22:39;;;;;;;31.55;21.77;;;16.70;99.90;;;;;;5094126;28;20485;-71
2022/08/02 04:25:07;;;;;;;29.55;19.65;;;16.80;99.90;;;;;;5094246;28;20026;-71
2022/08/02 04:27:35;;;;;;;30.27;21.50;;;16.80;99.90;;;;;;5093944;28;20032;-71
2022/08/02 04:30:03;;;;;;;33.40;20.08;;;16.70;99.90;;;;;;5094051;28;20186;-71
2022/08/02 04:32:30;;;;;;;28.00;20.25;;;16.80;99.90;;;;;;5093924;28;20031;-71
2022/08/02 04:34:56;;;;;;;34.70;21.25;;;16.80;99.90;;;;;;5094060;28;20028;-71
2022/08/02 04:37:22;;;;;;;28.73;20.38;;;16.80;99.90;;;;;;5092496;28;20035;-72
2022/08/02 04:39:48;;;;;;;27.80;19.77;;;16.80;99.90;;;;;;5093952;28;20024;-72
2022/08/02 04:42:21;;;;;;;30.52;21.35;;;16.80;99.90;;;;;;5093760;28;20030;-72
2022/08/02 04:44:48;;;;;;;25.55;18.90;;;16.80;99.90;;;;;;5093917;28;20511;-72
2022/08/02 04:47:14;;;;;;;30.50;21.35;;;16.80;99.90;;;;;;5093420;28;20036;-72
2022/08/02 04:49:40;;;;;;;28.02;21.00;;;16.80;99.90;;;;;;5093780;28;20020;-72
2022/08/02 04:52:05;;;;;;;30.83;22.77;;;16.80;99.90;;;;;;5092183;28;20024;-72
2022/08/02 04:54:31;;;;;;;31.42;22.90;;;16.80;99.90;;;;;;5092456;28;20032;-72
2022/08/02 04:56:57;;;;;;;34.58;22.40;;;16.80;99.90;;;;;;5093439;28;20525;-72
2022/08/02 04:59:22;;;;;;;33.42;21.92;;;16.80;99.90;;;;;;5093649;28;20062;-73
2022/08/02 05:01:48;;;;;;;32.17;21.73;;;16.90;99.90;;;;;;5093323;28;20104;-72
2022/08/02 05:04:14;;;;;;;29.95;19.20;;;16.90;99.90;;;;;;5093590;28;20016;-72
2022/08/02 05:06:39;;;;;;;30.15;21.38;;;16.90;99.90;;;;;;5093060;28;20074;-71
2022/08/02 05:09:05;;;;;;;30.75;21.33;;;16.90;99.90;;;;;;5093390;28;20028;-72
2022/08/02 05:11:30;;;;;;;33.03;21.73;;;16.90;99.90;;;;;;5092181;28;20024;-73
2022/08/02 05:13:56;;;;;;;30.45;21.10;;;17.00;99.90;;;;;;5093141;28;20095;-72
2022/08/02 05:16:22;;;;;;;30.08;22.08;;;17.00;99.90;;;;;;5093347;28;20020;-72
2022/08/02 05:18:49;;;;;;;29.85;21.27;;;17.00;99.90;;;;;;5093138;28;20078;-72
2022/08/02 05:21:15;;;;;;;31.63;22.55;;;17.00;99.90;;;;;;5093358;28;20055;-71
2022/08/02 05:23:41;;;;;;;28.65;20.80;;;17.00;99.90;;;;;;5091853;28;20024;-72
2022/08/02 05:26:06;;;;;;;32.70;22.98;;;17.10;99.90;;;;;;5092990;28;20032;-73
2022/08/02 05:28:32;;;;;;;31.90;21.90;;;17.20;99.90;;;;;;5093100;28;20028;-71
2022/08/02 05:30:58;;;;;;;31.98;22.13;;;17.20;99.90;;;;;;5093186;28;20409;-72
2022/08/02 05:33:24;;;;;;;30.65;22.58;;;17.20;99.90;;;;;;5093042;28;20413;-71
2022/08/02 05:35:49;;;;;;;27.92;20.40;;;17.20;99.90;;;;;;5093082;28;20051;-72
2022/08/02 05:38:15;;;;;;;33.13;22.90;;;17.20;99.90;;;;;;5092916;28;20039;-72
2022/08/02 05:40:41;;;;;;;29.63;20.25;;;17.20;99.90;;;;;;5093071;28;20024;-72
2022/08/02 05:43:13;;;;;;;33.38;22.48;;;17.30;99.90;;;;;;5092942;28;20381;-71
2022/08/02 05:45:39;;;;;;;35.28;23.08;;;17.30;99.90;;;;;;5092968;28;20016;-71
2022/08/02 05:48:05;;;;;;;29.48;22.33;;;17.40;99.90;;;;;;5092638;28;20036;-71
2022/08/02 05:50:32;;;;;;;31.52;20.60;;;17.40;99.90;;;;;;5093009;28;20482;-71
2022/08/02 05:53:35;;;;;;;26.65;20.10;;;17.40;99.90;;;;;;5091537;28;20048;-71
2022/08/02 05:56:08;;;;;;;29.63;21.88;;;17.50;99.90;;;;;;5092499;28;20069;-71
2022/08/02 05:58:51;;;;;;;26.75;20.75;;;17.60;99.90;;;;;;5092822;28;20020;-71
2022/08/02 06:01:26;;;;;;;27.60;20.98;;;17.60;99.90;;;;;;5093130;28;20016;-71
2022/08/02 06:03:55;;;;;;;29.02;20.88;;;17.60;99.90;;;;;;5092743;28;20056;-71
2022/08/02 06:06:24;;;;;;;27.48;21.25;;;17.70;99.90;;;;;;5092612;28;20515;-71
2022/08/02 06:08:58;;;;;;;26.10;21.48;;;17.60;99.90;;;;;;5091463;28;20016;-72
2022/08/02 06:11:32;;;;;;;26.92;22.10;;;17.70;99.90;;;;;;5087101;28;20559;-71
2022/08/02 06:13:59;;;;;;;31.63;23.17;;;17.70;99.90;;;;;;5086970;28;20034;-71
2022/08/02 06:16:26;;;;;;;32.97;23.85;;;17.70;99.90;;;;;;5087373;28;20190;-72
2022/08/02 06:18:53;;;;;;;33.60;23.08;;;17.70;99.90;;;;;;5079728;28;20497;-71
2022/08/02 06:21:21;;;;;;;36.33;26.42;;;17.80;99.90;;;;;;5076229;28;20017;-71
2022/08/02 06:23:47;;;;;;;37.88;25.42;;;17.80;99.90;;;;;;5075705;28;20074;-71
2022/08/02 06:26:15;;;;;;;39.25;26.33;;;17.90;99.90;;;;;;5075439;28;20033;-72
2022/08/02 06:28:42;;;;;;;35.03;24.67;;;18.00;99.90;;;;;;5075799;28;20021;-71
2022/08/02 06:31:08;;;;;;;34.58;24.10;;;18.00;99.90;;;;;;5085451;28;20071;-71
2022/08/02 06:33:34;;;;;;;38.97;27.65;;;18.00;99.90;;;;;;5076021;28;20029;-71
2022/08/02 06:36:21;;;;;;;42.47;28.05;;;18.00;99.90;;;;;;5075847;28;20013;-73
2022/08/02 06:39:04;;;;;;;46.63;30.02;;;18.10;99.90;;;;;;5075768;28;20024;-72
2022/08/02 06:41:41;;;;;;;51.30;28.98;;;18.20;99.90;;;;;;5074010;28;20021;-72
2022/08/02 06:44:08;;;;;;;45.10;29.35;;;18.40;99.90;;;;;;5082140;28;20020;-72
2022/08/02 06:46:33;;;;;;;42.10;28.77;;;18.60;99.90;;;;;;5095540;28;20540;-72
2022/08/02 06:49:01;;;;;;;42.72;28.48;;;18.70;99.90;;;;;;5092991;28;20016;-72
2022/08/02 06:51:30;;;;;;;45.28;30.08;;;18.70;99.90;;;;;;5091728;28;20024;-72
2022/08/02 06:53:55;;;;;;;46.03;28.52;;;18.80;99.90;;;;;;5090564;28;20051;-72
2022/08/02 06:56:21;;;;;;;42.22;27.35;;;18.80;99.90;;;;;;5079318;28;20535;-73
2022/08/02 06:58:47;;;;;;;47.00;32.30;;;18.70;99.90;;;;;;5075203;28;20447;-73
2022/08/02 07:01:12;;;;;;;37.35;27.85;;;18.70;99.90;;;;;;5075525;28;20070;-73
2022/08/02 07:03:39;;;;;;;44.17;30.73;;;18.80;99.90;;;;;;5073521;28;20581;-72
2022/08/02 07:06:10;;;;;;;42.90;28.70;;;18.80;99.90;;;;;;5071926;28;20025;-71
2022/08/02 07:08:37;;;;;;;45.03;31.00;;;18.80;99.90;;;;;;5087734;28;20110;-74
2022/08/02 07:11:04;;;;;;;43.75;30.42;;;18.90;99.90;;;;;;5092914;28;20679;-72
2022/08/02 07:13:30;;;;;;;39.50;30.02;;;18.80;99.90;;;;;;5093230;28;20078;-74
2022/08/02 07:15:56;;;;;;;43.78;31.05;;;19.00;99.90;;;;;;5094583;28;20040;-74
2022/08/02 07:18:23;;;;;;;43.75;30.77;;;18.90;99.90;;;;;;5093788;28;20027;-72
2022/08/02 07:20:49;;;;;;;42.20;29.63;;;19.00;99.90;;;;;;5095547;28;20053;-75
2022/08/02 07:23:15;;;;;;;41.30;29.00;;;19.00;99.90;;;;;;5095625;28;20028;-74
2022/08/02 07:25:41;;;;;;;41.72;28.85;;;19.10;99.90;;;;;;5095514;28;20039;-72
2022/08/02 07:28:09;;;;;;;31.75;24.98;;;19.30;99.90;;;;;;5093989;28;20036;-74
2022/08/02 07:30:35;;;;;;;29.63;23.85;;;19.30;99.90;;;;;;5093896;28;20024;-72
2022/08/02 07:33:01;;;;;;;34.65;26.17;;;19.30;99.90;;;;;;5094856;28;20027;-72
2022/08/02 07:35:27;;;;;;;30.90;23.80;;;19.30;99.90;;;;;;5094766;28;20058;-72
2022/08/02 07:37:52;;;;;;;33.17;25.60;;;19.40;99.90;;;;;;5093859;28;20024;-74
2022/08/02 07:40:19;;;;;;;31.63;25.10;;;19.50;99.90;;;;;;5095418;28;20035;-72
2022/08/02 07:42:47;;;;;;;32.80;25.00;;;19.50;99.90;;;;;;5095273;28;20142;-72
2022/08/02 07:45:13;;;;;;;28.50;21.83;;;19.50;99.90;;;;;;5095108;28;20035;-73
2022/08/02 07:47:40;;;;;;;22.67;18.77;;;19.70;99.90;;;;;;5095036;28;20099;-74
2022/08/02 07:50:08;;;;;;;23.67;18.52;;;19.90;99.90;;;;;;5095004;28;20028;-74
2022/08/02 07:52:34;;;;;;;23.05;18.15;;;20.00;99.90;;;;;;5093552;28;20032;-74
2022/08/02 07:55:00;;;;;;;22.50;18.70;;;20.00;99.90;;;;;;5094061;28;20070;-72
2022/08/02 07:57:25;;;;;;;19.70;16.70;;;19.90;99.90;;;;;;5094874;28;20031;-75
2022/08/02 07:59:51;;;;;;;24.10;18.35;;;20.00;99.90;;;;;;5094768;28;20028;-74
2022/08/02 08:02:17;;;;;;;18.95;15.57;;;20.10;99.90;;;;;;5093622;28;20028;-73
2022/08/02 08:04:43;;;;;;;22.15;17.38;;;20.30;99.90;;;;;;5094820;28;20020;-74
2022/08/02 08:07:10;;;;;;;19.40;17.08;;;20.40;99.90;;;;;;5094624;28;20032;-74
2022/08/02 08:09:44;;;;;;;19.63;17.60;;;20.40;99.90;;;;;;5094785;28;20050;-72
2022/08/02 08:12:10;;;;;;;18.85;16.80;;;20.30;99.90;;;;;;5094667;28;20024;-74
2022/08/02 08:14:38;;;;;;;19.25;17.15;;;20.30;99.90;;;;;;5094536;28;20020;-72
2022/08/02 08:17:05;;;;;;;26.60;18.30;;;20.50;99.90;;;;;;5094469;28;20024;-72
2022/08/02 08:19:31;;;;;;;18.90;16.95;;;20.40;99.90;;;;;;5094520;28;20020;-74
2022/08/02 08:21:59;;;;;;;18.70;16.77;;;20.40;99.90;;;;;;5094339;28;20034;-72
2022/08/02 08:24:25;;;;;;;21.27;17.50;;;20.60;99.90;;;;;;5094349;28;20020;-72
2022/08/02 08:26:51;;;;;;;17.90;15.95;;;20.50;99.90;;;;;;5094210;28;20112;-73
2022/08/02 08:29:17;;;;;;;25.52;19.15;;;20.60;99.90;;;;;;5094442;28;20059;-72
2022/08/02 08:31:42;;;;;;;25.13;21.63;;;20.60;99.90;;;;;;5094284;28;20048;-74
2022/08/02 08:34:09;;;;;;;27.55;23.58;;;20.50;99.90;;;;;;5093053;28;20020;-73
2022/08/02 08:36:34;;;;;;;31.00;25.05;;;20.40;99.90;;;;;;5094062;28;20036;-72
2022/08/02 08:39:00;;;;;;;37.60;28.55;;;20.30;99.90;;;;;;5094318;28;20108;-73
2022/08/02 08:41:26;;;;;;;37.47;28.60;;;20.10;99.90;;;;;;5093685;28;20063;-72
2022/08/02 08:43:52;;;;;;;39.42;29.95;;;20.00;99.90;;;;;;5092694;28;20029;-72
2022/08/02 08:46:30;;;;;;;38.53;30.55;;;19.90;99.90;;;;;;5093959;28;20043;-74
2022/08/02 08:49:05;;;;;;;39.58;30.63;;;19.80;99.90;;;;;;5094068;28;20032;-74
2022/08/02 08:51:36;;;;;;;40.42;30.20;;;19.70;99.90;;;;;;5092682;28;20016;-72
2022/08/02 08:54:03;;;;;;;37.22;29.25;;;19.80;99.90;;;;;;5093950;28;20040;-71
2022/08/02 08:56:33;;;;;;;37.75;28.83;;;19.70;99.90;;;;;;5093893;28;20017;-73
2022/08/02 08:58:59;;;;;;;33.38;29.10;;;19.80;99.90;;;;;;5092616;28;20481;-72
2022/08/02 09:01:25;;;;;;;37.10;29.42;;;19.80;99.90;;;;;;5092503;28;20469;-72
2022/08/02 09:03:51;;;;;;;37.40;29.73;;;19.90;99.90;;;;;;5093772;28;20027;-72
2022/08/02 09:06:17;;;;;;;35.17;28.25;;;20.00;99.90;;;;;;5093481;28;20036;-73
2022/08/02 09:08:42;;;;;;;31.23;26.10;;;20.00;99.90;;;;;;5093668;28;20470;-74
2022/08/02 09:11:14;;;;;;;35.55;25.98;;;19.90;99.90;;;;;;5092371;28;20031;-72
2022/08/02 09:13:52;;;;;;;28.27;24.63;;;19.90;99.90;;;;;;5092473;28;20389;-71
2022/08/02 09:16:33;;;;;;;30.92;25.00;;;19.90;99.90;;;;;;5093484;28;20694;-74
2022/08/02 09:18:59;;;;;;;28.77;22.42;;;19.90;99.90;;;;;;5093766;28;20024;-71
2022/08/02 09:21:34;;;;;;;21.52;18.63;;;20.00;99.90;;;;;;5093477;28;20043;-72
2022/08/02 09:24:00;;;;;;;20.45;17.05;;;19.90;99.90;;;;;;5093400;28;20107;-74
2022/08/02 09:26:27;;;;;;;21.83;19.00;;;19.80;99.90;;;;;;5093350;28;20035;-74
2022/08/02 09:29:00;;;;;;;27.20;19.70;;;19.80;99.90;;;;;;5092260;28;20355;-71
2022/08/02 09:31:26;;;;;;;20.42;17.95;;;19.80;99.90;;;;;;5093336;28;20024;-72
2022/08/02 09:33:58;;;;;;;21.13;18.83;;;19.90;99.90;;;;;;5093375;28;20114;-73
2022/08/02 09:36:26;;;;;;;26.13;18.88;;;19.90;99.90;;;;;;5093281;28;20024;-72
2022/08/02 09:38:57;;;;;;;24.88;19.40;;;20.00;99.90;;;;;;5093390;28;20020;-72
2022/08/02 09:41:27;;;;;;;22.60;20.20;;;20.00;99.90;;;;;;5093374;28;20056;-74
2022/08/02 09:43:54;;;;;;;26.67;20.40;;;20.10;99.90;;;;;;5091853;28;20466;-73
2022/08/02 09:46:32;;;;;;;23.40;18.25;;;20.20;99.90;;;;;;5091710;28;20123;-72
2022/08/02 09:48:58;;;;;;;22.67;18.58;;;20.30;99.90;;;;;;5093396;28;20024;-73
2022/08/02 09:51:26;;;;;;;21.45;17.25;;;20.50;99.90;;;;;;5093169;28;20024;-74
2022/08/02 09:54:00;;;;;;;19.00;17.00;;;20.60;99.90;;;;;;5093276;28;20055;-72
2022/08/02 09:56:38;;;;;;;20.17;17.05;;;20.60;99.90;;;;;;5095817;28;20027;-72
2022/08/02 09:59:06;;;;;;;19.95;17.00;;;20.60;99.90;;;;;;5097287;28;20016;-69
2022/08/02 10:01:33;;;;;;;16.90;15.18;;;20.70;99.90;;;;;;5097318;28;20385;-72
2022/08/02 10:04:02;;;;;;;17.50;14.80;;;20.60;99.90;;;;;;5097184;28;20032;-71
2022/08/02 10:06:28;;;;;;;25.95;20.88;;;20.60;99.90;;;;;;5095702;28;20059;-70
2022/08/02 10:08:54;;;;;;;25.30;21.98;;;20.60;99.90;;;;;;5097165;28;20020;-70
2022/08/02 10:11:25;;;;;;;24.98;22.05;;;20.50;99.90;;;;;;5095835;28;20024;-72
2022/08/02 10:13:51;;;;;;;28.00;21.05;;;20.50;99.90;;;;;;5095744;28;20032;-71
2022/08/02 10:16:23;;;;;;;25.35;20.70;;;20.40;99.90;;;;;;5096805;28;20027;-70
2022/08/02 10:18:50;;;;;;;26.00;21.65;;;20.50;99.90;;;;;;5097004;28;20016;-70
2022/08/02 10:21:32;;;;;;;24.25;19.63;;;20.40;99.90;;;;;;5096760;28;20042;-70
2022/08/02 10:24:19;;;;;;;21.77;19.60;;;20.40;99.90;;;;;;5096816;28;20503;-70
2022/08/02 10:26:47;;;;;;;22.05;19.65;;;20.50;99.90;;;;;;5095203;28;20040;-71
2022/08/02 10:29:23;;;;;;;19.67;16.80;;;20.70;99.90;;;;;;5096832;28;20102;-71
2022/08/02 10:31:56;;;;;;;18.98;16.58;;;20.90;99.90;;;;;;5096654;28;20031;-71
2022/08/02 10:34:43;;;;;;;19.65;16.67;;;21.10;99.90;;;;;;5096828;28;20107;-72
2022/08/02 10:37:12;;;;;;;18.23;15.35;;;21.20;99.90;;;;;;5095133;28;20065;-72
2022/08/02 10:39:42;;;;;;;17.38;15.00;;;21.40;99.90;;;;;;5096548;28;20024;-70
2022/08/02 10:42:08;;;;;;;17.80;15.77;;;21.60;99.90;;;;;;5096429;28;20405;-70
2022/08/02 10:44:35;;;;;;;17.58;15.77;;;21.50;99.90;;;;;;5096467;28;20036;-70
2022/08/02 10:47:13;;;;;;;16.10;14.45;;;21.60;99.90;;;;;;5096224;28;20036;-70
2022/08/02 10:49:58;;;;;;;17.38;15.75;;;21.50;99.90;;;;;;5096478;28;20531;-72
2022/08/02 10:52:31;;;;;;;15.57;13.95;;;21.40;99.90;;;;;;5096456;28;20126;-72
2022/08/02 10:55:00;;;;;;;15.13;13.57;;;21.60;99.90;;;;;;5096452;28;20020;-75
2022/08/02 10:57:26;;;;;;;17.77;15.75;;;21.70;99.90;;;;;;5094748;28;20036;-74
2022/08/02 11:00:00;;;;;;;16.83;14.98;;;21.80;99.90;;;;;;5094755;28;20097;-71
2022/08/02 11:02:55;;;;;;;15.95;14.27;;;21.80;99.90;;;;;;5096111;28;20024;-69
2022/08/02 11:05:32;;;;;;;15.60;14.07;;;21.60;99.90;;;;;;5094221;28;20028;-70
2022/08/02 11:07:57;;;;;;;15.48;13.93;;;21.30;99.90;;;;;;5095733;28;20036;-71
2022/08/02 11:10:26;;;;;;;16.52;14.80;;;21.30;99.90;;;;;;5096112;28;20020;-73
2022/08/02 11:13:04;;;;;;;15.32;13.57;;;21.30;99.90;;;;;;5095831;28;20550;-72
2022/08/02 11:15:46;;;;;;;16.23;14.63;;;21.50;99.90;;;;;;5096056;28;20027;-73
2022/08/02 11:18:11;;;;;;;15.43;13.83;;;21.30;99.90;;;;;;5095749;28;20024;-72
2022/08/02 11:20:37;;;;;;;18.13;14.00;;;21.40;99.90;;;;;;5095807;28;20337;-71
2022/08/02 11:23:37;;;;;;;15.20;13.80;;;21.30;99.90;;;;;;5095666;28;20440;-71
2022/08/02 11:26:32;;;;;;;15.93;14.43;;;21.40;99.90;;;;;;5075254;28;20059;-71
2022/08/02 11:29:00;;;;;;;16.15;14.32;;;21.40;99.90;;;;;;5075440;28;20459;-72
2022/08/02 11:31:27;;;;;;;15.13;13.38;;;21.40;99.90;;;;;;5075353;28;20399;-73
2022/08/02 11:33:53;;;;;;;14.43;13.10;;;21.50;99.90;;;;;;5075141;28;20027;-71
2022/08/02 11:36:19;;;;;;;13.70;12.27;;;21.60;99.90;;;;;;5075221;28;20070;-71
2022/08/02 11:38:44;;;;;;;13.10;11.77;;;21.60;99.90;;;;;;5075042;28;20025;-70
2022/08/02 11:41:21;;;;;;;13.05;11.85;;;21.70;99.90;;;;;;5073963;28;20020;-73
2022/08/02 11:43:53;;;;;;;14.52;13.02;;;21.70;99.90;;;;;;5075031;28;20081;-72
2022/08/02 11:46:19;;;;;;;13.07;11.98;;;21.70;99.90;;;;;;5086481;28;20082;-71
2022/08/02 11:48:45;;;;;;;11.90;10.80;;;22.00;99.90;;;;;;5095155;28;20036;-72
2022/08/02 11:51:16;;;;;;;13.35;12.18;;;22.20;99.90;;;;;;5095218;28;20024;-71
2022/08/02 11:53:56;;;;;;;12.95;11.60;;;22.40;99.90;;;;;;5094847;28;20048;-73
2022/08/02 11:56:28;;;;;;;13.48;11.68;;;22.60;99.90;;;;;;5093353;28;20385;-70
2022/08/02 11:59:10;;;;;;;12.48;10.40;;;23.00;99.90;;;;;;5093700;28;20016;-72
2022/08/02 12:01:38;;;;;;;12.25;11.15;;;23.10;99.90;;;;;;5095105;28;20028;-73
2022/08/02 12:04:05;;;;;;;11.80;10.48;;;23.20;99.90;;;;;;5093430;28;20056;-71
2022/08/02 12:06:32;;;;;;;9.88;9.00;;;23.30;99.90;;;;;;5094755;28;20077;-71
2022/08/02 12:09:06;;;;;;;11.20;10.00;;;23.40;99.90;;;;;;5094847;28;20078;-71
2022/08/02 12:11:33;;;;;;;10.27;9.10;;;23.60;97.10;;;;;;5094842;28;20028;-73
2022/08/02 12:13:59;;;;;;;9.63;8.52;;;23.50;94.60;;;;;;5094622;28;20020;-71
2022/08/02 12:19:28;;;;;;;10.25;9.25;;;23.60;94.90;;;;;;5094700;28;20538;-72
2022/08/02 12:22:25;;;;;;;10.10;9.25;;;23.40;94.40;;;;;;5094579;28;20110;-71
2022/08/02 12:24:54;;;;;;;9.18;8.38;;;23.40;96.80;;;;;;5094562;28;20020;-73
2022/08/02 12:27:33;;;;;;;12.43;10.10;;;23.50;97.40;;;;;;5092995;28;20031;-71
2022/08/02 12:30:01;;;;;;;10.20;9.23;;;23.30;94.40;;;;;;5093058;28;20026;-72
2022/08/02 12:32:27;;;;;;;8.90;8.10;;;23.30;93.50;;;;;;5094448;28;20028;-73
2022/08/02 12:35:13;;;;;;;9.23;8.43;;;23.60;94.80;;;;;;5094366;28;20026;-72
2022/08/02 12:37:43;;;;;;;9.88;8.98;;;23.90;89.20;;;;;;5094209;28;20035;-73
2022/08/02 12:40:31;;;;;;;10.73;9.45;;;24.20;89.10;;;;;;5094063;28;20028;-71
2022/08/02 12:42:59;;;;;;;10.35;8.63;;;24.10;83.50;;;;;;5094337;28;20023;-73